Strona główna
METAR-TAF:

METAR-TAF

Lotnisko :

Port lotniczy Kuching

Kuching, Malezja

Szerokość geograficzna: 01-29N, Długość geograficzna: 110-20E, wysokość: 27 m

Aktualna obserwacja pogody

Raport powstał 19 minut temu, godzina 10:30 UTC
Wiatr 6 kt od północ, zmienny między zachodnio-północny zachód i północno-północny wschód
Temperatura 30°C
Wilgotność 75%
Ciśnienie 1008 hPa
Widzialność 10 km lub więcej
Mało chmury na wysokości 1500 ft, Cumulonimbus.
Przerywane chmury na wysokości 30000 ft

METAR: WBGG 181030Z 35006KT 300V030 9999 FEW015CB BKN300 30/25 Q1008 NOSIG

czas: 18:49 (10:49 UTC)

Prognoza

Raport powstał 5 godziny i 49 minut temu, godzina 05:00 UTC
Prognoza ważna od 18 godzina 06 UTC do 19 godzina 06 UTC
Wiatr 5 kt od wschodnio-północny wschód
Widzialność 10 km lub więcej
Rozproszone chmury na wysokości 2000 ft
Przejściowo
od 18 godzina 06 UTC do 18 godzina 10 UTC
Widzialność: 4000 m
Mało chmury na wysokości 1500 ft, Cumulonimbus.
burza, deszcz

TAF: WBGG 180500Z 1806/1906 07005KT 9999 SCT020 TEMPO 1806/1810 4000 TSRA FEW015CB

Obserwacja i prognoza pogody dla ponad 4000 lotnisk (raport METAR i TAF).

Dostępne stacje oznaczono żółtymi i czerwonymi punktami na mapie.

Najedź kursorem aby zobaczyć nazwę stacji.

Kliknij aby zobaczyć obserwacje i prognozy pogody.

Aby zmienić mapę: kliknij na zielony przycisk z czarnym krzyżykiem, aby powiększyć; na zielony przycisk z myślnikiem, aby pomniejszyć; na zielone strzałki, aby przejść do map sąsiednich.


METAR-TAF: